sensor_id;sensor_type;location;lat;lon;timestamp;P1;durP1;ratioP1;P2;durP2;ratioP2
3779;SDS011;1905;52.482;9.802;2022-09-12T00:01:14;7.43;;;4.63;;
3779;SDS011;1905;52.482;9.802;2022-09-12T00:03:43;6.70;;;4.67;;
3779;SDS011;1905;52.482;9.802;2022-09-12T00:06:12;4.30;;;3.50;;
3779;SDS011;1905;52.482;9.802;2022-09-12T00:08:48;12.13;;;5.43;;
3779;SDS011;1905;52.482;9.802;2022-09-12T00:11:15;5.07;;;3.90;;
3779;SDS011;1905;52.482;9.802;2022-09-12T00:13:43;5.60;;;4.13;;
3779;SDS011;1905;52.482;9.802;2022-09-12T00:16:14;8.20;;;5.10;;
3779;SDS011;1905;52.482;9.802;2022-09-12T00:18:43;4.93;;;4.07;;
3779;SDS011;1905;52.482;9.802;2022-09-12T00:21:13;6.57;;;4.13;;
3779;SDS011;1905;52.482;9.802;2022-09-12T00:23:42;6.28;;;4.00;;
3779;SDS011;1905;52.482;9.802;2022-09-12T00:26:11;6.40;;;4.33;;
3779;SDS011;1905;52.482;9.802;2022-09-12T00:28:39;5.70;;;4.30;;
3779;SDS011;1905;52.482;9.802;2022-09-12T00:31:08;8.10;;;4.20;;
3779;SDS011;1905;52.482;9.802;2022-09-12T00:33:38;6.70;;;4.50;;
3779;SDS011;1905;52.482;9.802;2022-09-12T00:36:08;4.30;;;3.90;;
3779;SDS011;1905;52.482;9.802;2022-09-12T00:38:38;7.90;;;4.57;;
3779;SDS011;1905;52.482;9.802;2022-09-12T00:41:09;6.43;;;4.90;;
3779;SDS011;1905;52.482;9.802;2022-09-12T00:43:41;6.83;;;5.17;;
3779;SDS011;1905;52.482;9.802;2022-09-12T00:46:12;8.50;;;5.30;;
3779;SDS011;1905;52.482;9.802;2022-09-12T00:48:51;8.43;;;5.57;;
3779;SDS011;1905;52.482;9.802;2022-09-12T00:51:22;6.78;;;6.07;;
3779;SDS011;1905;52.482;9.802;2022-09-12T00:53:52;7.60;;;4.93;;
3779;SDS011;1905;52.482;9.802;2022-09-12T00:56:21;7.30;;;4.97;;
3779;SDS011;1905;52.482;9.802;2022-09-12T00:58:51;8.47;;;4.60;;
3779;SDS011;1905;52.482;9.802;2022-09-12T01:01:24;7.97;;;4.93;;
3779;SDS011;1905;52.482;9.802;2022-09-12T01:03:57;8.60;;;4.80;;
3779;SDS011;1905;52.482;9.802;2022-09-12T01:06:26;10.60;;;6.90;;
3779;SDS011;1905;52.482;9.802;2022-09-12T01:08:57;7.60;;;5.17;;
3779;SDS011;1905;52.482;9.802;2022-09-12T01:11:29;8.50;;;6.60;;
3779;SDS011;1905;52.482;9.802;2022-09-12T01:13:58;7.50;;;5.33;;
3779;SDS011;1905;52.482;9.802;2022-09-12T01:16:26;7.53;;;5.30;;
3779;SDS011;1905;52.482;9.802;2022-09-12T01:18:56;8.53;;;6.47;;
3779;SDS011;1905;52.482;9.802;2022-09-12T01:21:33;8.03;;;5.50;;
3779;SDS011;1905;52.482;9.802;2022-09-12T01:24:21;8.40;;;5.50;;
3779;SDS011;1905;52.482;9.802;2022-09-12T01:27:07;6.00;;;5.00;;
3779;SDS011;1905;52.482;9.802;2022-09-12T01:29:59;7.50;;;5.10;;
3779;SDS011;1905;52.482;9.802;2022-09-12T01:32:36;6.43;;;4.80;;
3779;SDS011;1905;52.482;9.802;2022-09-12T01:35:16;6.30;;;4.73;;
3779;SDS011;1905;52.482;9.802;2022-09-12T01:37:51;7.23;;;5.30;;
3779;SDS011;1905;52.482;9.802;2022-09-12T01:40:27;6.20;;;5.30;;
3779;SDS011;1905;52.482;9.802;2022-09-12T01:43:01;5.70;;;5.10;;
3779;SDS011;1905;52.482;9.802;2022-09-12T01:45:37;6.43;;;5.07;;
3779;SDS011;1905;52.482;9.802;2022-09-12T01:48:12;5.60;;;4.00;;
3779;SDS011;1905;52.482;9.802;2022-09-12T01:50:43;6.77;;;4.67;;
3779;SDS011;1905;52.482;9.802;2022-09-12T01:53:18;5.73;;;4.30;;
3779;SDS011;1905;52.482;9.802;2022-09-12T01:55:49;5.57;;;4.73;;
3779;SDS011;1905;52.482;9.802;2022-09-12T01:58:21;5.40;;;4.10;;
3779;SDS011;1905;52.482;9.802;2022-09-12T02:00:54;6.63;;;4.30;;
3779;SDS011;1905;52.482;9.802;2022-09-12T02:03:29;6.63;;;4.20;;
3779;SDS011;1905;52.482;9.802;2022-09-12T02:06:00;6.93;;;4.30;;
3779;SDS011;1905;52.482;9.802;2022-09-12T02:08:34;6.73;;;4.67;;
3779;SDS011;1905;52.482;9.802;2022-09-12T02:11:08;4.50;;;3.83;;
3779;SDS011;1905;52.482;9.802;2022-09-12T02:13:38;5.67;;;4.37;;
3779;SDS011;1905;52.482;9.802;2022-09-12T02:16:10;6.83;;;4.30;;
3779;SDS011;1905;52.482;9.802;2022-09-12T02:18:44;5.73;;;4.47;;
3779;SDS011;1905;52.482;9.802;2022-09-12T02:21:17;5.40;;;4.10;;
3779;SDS011;1905;52.482;9.802;2022-09-12T02:23:46;4.33;;;3.20;;
3779;SDS011;1905;52.482;9.802;2022-09-12T02:26:20;3.37;;;3.07;;
3779;SDS011;1905;52.482;9.802;2022-09-12T02:28:54;6.67;;;3.90;;
3779;SDS011;1905;52.482;9.802;2022-09-12T02:31:23;4.50;;;3.40;;
3779;SDS011;1905;52.482;9.802;2022-09-12T02:33:59;5.97;;;4.07;;
3779;SDS011;1905;52.482;9.802;2022-09-12T02:36:38;4.00;;;3.60;;
3779;SDS011;1905;52.482;9.802;2022-09-12T02:39:15;3.40;;;3.10;;
3779;SDS011;1905;52.482;9.802;2022-09-12T02:41:45;4.87;;;3.80;;
3779;SDS011;1905;52.482;9.802;2022-09-12T02:44:13;4.30;;;3.00;;
3779;SDS011;1905;52.482;9.802;2022-09-12T02:46:41;4.73;;;3.77;;
3779;SDS011;1905;52.482;9.802;2022-09-12T02:49:14;6.40;;;4.10;;
3779;SDS011;1905;52.482;9.802;2022-09-12T02:51:42;5.17;;;3.90;;
3779;SDS011;1905;52.482;9.802;2022-09-12T02:54:11;5.97;;;3.20;;
3779;SDS011;1905;52.482;9.802;2022-09-12T02:56:41;5.87;;;3.53;;
3779;SDS011;1905;52.482;9.802;2022-09-12T02:59:10;4.22;;;3.78;;
3779;SDS011;1905;52.482;9.802;2022-09-12T03:01:49;5.50;;;4.10;;
3779;SDS011;1905;52.482;9.802;2022-09-12T03:04:32;6.40;;;4.53;;
3779;SDS011;1905;52.482;9.802;2022-09-12T03:07:11;6.33;;;4.40;;
3779;SDS011;1905;52.482;9.802;2022-09-12T03:09:44;7.00;;;4.40;;
3779;SDS011;1905;52.482;9.802;2022-09-12T03:12:19;7.07;;;4.97;;
3779;SDS011;1905;52.482;9.802;2022-09-12T03:14:59;4.30;;;3.77;;
3779;SDS011;1905;52.482;9.802;2022-09-12T03:17:41;6.17;;;4.03;;
3779;SDS011;1905;52.482;9.802;2022-09-12T03:20:19;5.43;;;4.00;;
3779;SDS011;1905;52.482;9.802;2022-09-12T03:22:57;9.10;;;4.57;;
3779;SDS011;1905;52.482;9.802;2022-09-12T03:25:30;5.37;;;3.40;;
3779;SDS011;1905;52.482;9.802;2022-09-12T03:28:04;8.07;;;4.13;;
3779;SDS011;1905;52.482;9.802;2022-09-12T03:30:36;5.50;;;3.43;;
3779;SDS011;1905;52.482;9.802;2022-09-12T03:33:09;5.10;;;3.50;;
3779;SDS011;1905;52.482;9.802;2022-09-12T03:35:38;6.00;;;3.50;;
3779;SDS011;1905;52.482;9.802;2022-09-12T03:38:06;5.53;;;4.07;;
3779;SDS011;1905;52.482;9.802;2022-09-12T03:40:34;6.03;;;3.40;;
3779;SDS011;1905;52.482;9.802;2022-09-12T03:43:02;6.50;;;5.00;;
3779;SDS011;1905;52.482;9.802;2022-09-12T03:45:30;5.37;;;3.93;;
3779;SDS011;1905;52.482;9.802;2022-09-12T03:47:58;8.70;;;5.53;;
3779;SDS011;1905;52.482;9.802;2022-09-12T03:50:25;6.17;;;4.27;;
3779;SDS011;1905;52.482;9.802;2022-09-12T03:52:54;7.00;;;4.37;;
3779;SDS011;1905;52.482;9.802;2022-09-12T03:55:24;4.90;;;3.70;;
3779;SDS011;1905;52.482;9.802;2022-09-12T03:57:52;5.03;;;4.50;;
3779;SDS011;1905;52.482;9.802;2022-09-12T04:00:21;4.70;;;3.40;;
3779;SDS011;1905;52.482;9.802;2022-09-12T04:02:52;6.20;;;4.50;;
3779;SDS011;1905;52.482;9.802;2022-09-12T04:05:20;4.57;;;4.07;;
3779;SDS011;1905;52.482;9.802;2022-09-12T04:07:47;4.13;;;3.73;;
3779;SDS011;1905;52.482;9.802;2022-09-12T04:10:16;4.10;;;3.70;;
3779;SDS011;1905;52.482;9.802;2022-09-12T04:12:44;4.63;;;4.00;;
3779;SDS011;1905;52.482;9.802;2022-09-12T04:15:11;3.93;;;3.40;;
3779;SDS011;1905;52.482;9.802;2022-09-12T04:17:39;3.17;;;2.87;;
3779;SDS011;1905;52.482;9.802;2022-09-12T04:20:06;5.87;;;3.87;;
3779;SDS011;1905;52.482;9.802;2022-09-12T04:22:35;4.20;;;3.90;;
3779;SDS011;1905;52.482;9.802;2022-09-12T04:25:03;5.73;;;4.33;;
3779;SDS011;1905;52.482;9.802;2022-09-12T04:27:32;3.77;;;3.40;;
3779;SDS011;1905;52.482;9.802;2022-09-12T04:30:00;5.33;;;3.80;;
3779;SDS011;1905;52.482;9.802;2022-09-12T04:32:28;4.57;;;3.13;;
3779;SDS011;1905;52.482;9.802;2022-09-12T04:34:56;4.50;;;3.90;;
3779;SDS011;1905;52.482;9.802;2022-09-12T04:37:24;4.63;;;4.10;;
3779;SDS011;1905;52.482;9.802;2022-09-12T04:39:51;3.73;;;3.43;;
3779;SDS011;1905;52.482;9.802;2022-09-12T04:42:22;4.53;;;3.60;;
3779;SDS011;1905;52.482;9.802;2022-09-12T04:44:51;4.17;;;3.17;;
3779;SDS011;1905;52.482;9.802;2022-09-12T04:47:19;4.90;;;4.10;;
3779;SDS011;1905;52.482;9.802;2022-09-12T04:49:48;4.10;;;3.33;;
3779;SDS011;1905;52.482;9.802;2022-09-12T04:52:16;4.43;;;3.67;;
3779;SDS011;1905;52.482;9.802;2022-09-12T04:54:44;6.10;;;3.70;;
3779;SDS011;1905;52.482;9.802;2022-09-12T04:57:11;3.33;;;2.70;;
3779;SDS011;1905;52.482;9.802;2022-09-12T04:59:39;4.10;;;3.57;;
3779;SDS011;1905;52.482;9.802;2022-09-12T05:02:08;6.87;;;3.70;;
3779;SDS011;1905;52.482;9.802;2022-09-12T05:04:35;5.10;;;3.67;;
3779;SDS011;1905;52.482;9.802;2022-09-12T05:07:03;7.47;;;3.58;;
3779;SDS011;1905;52.482;9.802;2022-09-12T05:09:30;3.97;;;3.40;;
3779;SDS011;1905;52.482;9.802;2022-09-12T05:11:58;4.97;;;3.40;;
3779;SDS011;1905;52.482;9.802;2022-09-12T05:14:31;5.43;;;4.87;;
3779;SDS011;1905;52.482;9.802;2022-09-12T05:16:59;3.27;;;2.97;;
3779;SDS011;1905;52.482;9.802;2022-09-12T05:19:29;4.03;;;3.63;;
3779;SDS011;1905;52.482;9.802;2022-09-12T05:21:57;4.17;;;3.77;;
3779;SDS011;1905;52.482;9.802;2022-09-12T05:24:25;3.35;;;3.05;;
3779;SDS011;1905;52.482;9.802;2022-09-12T05:26:53;5.50;;;4.30;;
3779;SDS011;1905;52.482;9.802;2022-09-12T05:29:20;4.70;;;3.17;;
3779;SDS011;1905;52.482;9.802;2022-09-12T05:31:48;5.30;;;3.40;;
3779;SDS011;1905;52.482;9.802;2022-09-12T05:34:17;6.03;;;5.50;;
3779;SDS011;1905;52.482;9.802;2022-09-12T05:36:46;4.60;;;3.10;;
3779;SDS011;1905;52.482;9.802;2022-09-12T05:39:14;4.10;;;3.70;;
3779;SDS011;1905;52.482;9.802;2022-09-12T05:41:42;5.37;;;3.97;;
3779;SDS011;1905;52.482;9.802;2022-09-12T05:44:10;3.97;;;3.67;;
3779;SDS011;1905;52.482;9.802;2022-09-12T05:46:39;3.90;;;3.60;;
3779;SDS011;1905;52.482;9.802;2022-09-12T05:49:09;4.87;;;4.30;;
3779;SDS011;1905;52.482;9.802;2022-09-12T05:51:38;5.13;;;4.50;;
3779;SDS011;1905;52.482;9.802;2022-09-12T05:54:08;6.07;;;4.70;;
3779;SDS011;1905;52.482;9.802;2022-09-12T05:56:39;3.97;;;3.60;;
3779;SDS011;1905;52.482;9.802;2022-09-12T05:59:09;8.57;;;4.10;;
3779;SDS011;1905;52.482;9.802;2022-09-12T06:01:38;6.23;;;4.43;;
3779;SDS011;1905;52.482;9.802;2022-09-12T06:04:07;6.20;;;4.73;;
3779;SDS011;1905;52.482;9.802;2022-09-12T06:06:35;6.23;;;4.20;;
3779;SDS011;1905;52.482;9.802;2022-09-12T06:09:08;7.80;;;6.00;;
3779;SDS011;1905;52.482;9.802;2022-09-12T06:11:36;7.90;;;5.07;;
3779;SDS011;1905;52.482;9.802;2022-09-12T06:14:06;7.30;;;4.30;;
3779;SDS011;1905;52.482;9.802;2022-09-12T06:16:34;10.27;;;6.87;;
3779;SDS011;1905;52.482;9.802;2022-09-12T06:19:04;8.00;;;5.23;;
3779;SDS011;1905;52.482;9.802;2022-09-12T06:21:33;11.80;;;8.00;;
3779;SDS011;1905;52.482;9.802;2022-09-12T06:24:02;15.00;;;8.77;;
3779;SDS011;1905;52.482;9.802;2022-09-12T06:26:31;16.03;;;8.87;;
3779;SDS011;1905;52.482;9.802;2022-09-12T06:28:59;14.50;;;8.60;;
3779;SDS011;1905;52.482;9.802;2022-09-12T06:31:28;13.33;;;7.53;;
3779;SDS011;1905;52.482;9.802;2022-09-12T06:33:58;18.27;;;9.00;;
3779;SDS011;1905;52.482;9.802;2022-09-12T06:36:27;21.53;;;9.50;;
3779;SDS011;1905;52.482;9.802;2022-09-12T06:38:56;15.80;;;9.87;;
3779;SDS011;1905;52.482;9.802;2022-09-12T06:41:26;17.40;;;9.33;;
3779;SDS011;1905;52.482;9.802;2022-09-12T06:43:56;23.17;;;10.80;;
3779;SDS011;1905;52.482;9.802;2022-09-12T06:46:24;16.17;;;10.50;;
3779;SDS011;1905;52.482;9.802;2022-09-12T06:48:54;22.20;;;11.57;;
3779;SDS011;1905;52.482;9.802;2022-09-12T06:51:22;15.67;;;10.27;;
3779;SDS011;1905;52.482;9.802;2022-09-12T06:53:50;26.50;;;12.20;;
3779;SDS011;1905;52.482;9.802;2022-09-12T06:56:18;20.85;;;11.07;;
3779;SDS011;1905;52.482;9.802;2022-09-12T06:58:47;23.20;;;12.20;;
3779;SDS011;1905;52.482;9.802;2022-09-12T07:01:17;22.90;;;13.67;;
3779;SDS011;1905;52.482;9.802;2022-09-12T07:03:47;21.70;;;12.50;;
3779;SDS011;1905;52.482;9.802;2022-09-12T07:06:17;21.07;;;13.07;;
3779;SDS011;1905;52.482;9.802;2022-09-12T07:08:46;23.83;;;13.67;;
3779;SDS011;1905;52.482;9.802;2022-09-12T07:11:15;18.47;;;11.20;;
3779;SDS011;1905;52.482;9.802;2022-09-12T07:13:44;22.17;;;12.10;;
3779;SDS011;1905;52.482;9.802;2022-09-12T07:16:13;23.87;;;14.10;;
3779;SDS011;1905;52.482;9.802;2022-09-12T07:18:49;21.93;;;12.97;;
3779;SDS011;1905;52.482;9.802;2022-09-12T07:21:18;24.17;;;13.67;;
3779;SDS011;1905;52.482;9.802;2022-09-12T07:23:46;24.00;;;14.80;;
3779;SDS011;1905;52.482;9.802;2022-09-12T07:26:14;26.77;;;14.33;;
3779;SDS011;1905;52.482;9.802;2022-09-12T07:28:42;27.90;;;15.23;;
3779;SDS011;1905;52.482;9.802;2022-09-12T07:31:11;20.30;;;13.33;;
3779;SDS011;1905;52.482;9.802;2022-09-12T07:33:40;28.37;;;15.00;;
3779;SDS011;1905;52.482;9.802;2022-09-12T07:36:11;29.80;;;15.07;;
3779;SDS011;1905;52.482;9.802;2022-09-12T07:38:41;33.17;;;16.30;;
3779;SDS011;1905;52.482;9.802;2022-09-12T07:41:09;27.83;;;17.40;;
3779;SDS011;1905;52.482;9.802;2022-09-12T07:43:37;26.90;;;14.23;;
3779;SDS011;1905;52.482;9.802;2022-09-12T07:46:05;27.27;;;14.47;;
3779;SDS011;1905;52.482;9.802;2022-09-12T07:48:33;24.73;;;15.80;;
3779;SDS011;1905;52.482;9.802;2022-09-12T07:51:01;26.80;;;17.00;;
3779;SDS011;1905;52.482;9.802;2022-09-12T07:53:32;28.93;;;15.60;;
3779;SDS011;1905;52.482;9.802;2022-09-12T07:56:02;29.00;;;15.37;;
3779;SDS011;1905;52.482;9.802;2022-09-12T07:58:31;27.30;;;14.80;;
3779;SDS011;1905;52.482;9.802;2022-09-12T08:01:02;28.83;;;17.93;;
3779;SDS011;1905;52.482;9.802;2022-09-12T08:03:30;26.47;;;15.50;;
3779;SDS011;1905;52.482;9.802;2022-09-12T08:06:01;33.07;;;16.57;;
3779;SDS011;1905;52.482;9.802;2022-09-12T08:08:29;29.57;;;15.50;;
3779;SDS011;1905;52.482;9.802;2022-09-12T08:10:59;28.00;;;17.20;;
3779;SDS011;1905;52.482;9.802;2022-09-12T08:13:29;24.30;;;16.07;;
3779;SDS011;1905;52.482;9.802;2022-09-12T08:15:57;24.33;;;14.80;;
3779;SDS011;1905;52.482;9.802;2022-09-12T08:18:25;23.93;;;14.47;;
3779;SDS011;1905;52.482;9.802;2022-09-12T08:20:57;27.67;;;15.63;;
3779;SDS011;1905;52.482;9.802;2022-09-12T08:23:24;32.67;;;17.67;;
3779;SDS011;1905;52.482;9.802;2022-09-12T08:25:55;25.00;;;15.07;;
3779;SDS011;1905;52.482;9.802;2022-09-12T08:28:23;33.13;;;16.23;;
3779;SDS011;1905;52.482;9.802;2022-09-12T08:30:51;24.53;;;14.70;;
3779;SDS011;1905;52.482;9.802;2022-09-12T08:33:19;26.80;;;14.13;;
3779;SDS011;1905;52.482;9.802;2022-09-12T08:35:47;25.37;;;14.53;;
3779;SDS011;1905;52.482;9.802;2022-09-12T08:38:14;25.27;;;13.90;;
3779;SDS011;1905;52.482;9.802;2022-09-12T08:40:43;19.87;;;12.27;;
3779;SDS011;1905;52.482;9.802;2022-09-12T08:43:21;24.03;;;12.40;;
3779;SDS011;1905;52.482;9.802;2022-09-12T08:46:01;23.93;;;12.17;;
3779;SDS011;1905;52.482;9.802;2022-09-12T08:48:34;20.60;;;11.70;;
3779;SDS011;1905;52.482;9.802;2022-09-12T08:51:03;22.73;;;13.53;;
3779;SDS011;1905;52.482;9.802;2022-09-12T08:53:31;20.70;;;12.97;;
3779;SDS011;1905;52.482;9.802;2022-09-12T08:56:02;18.63;;;11.90;;
3779;SDS011;1905;52.482;9.802;2022-09-12T08:58:36;24.33;;;14.10;;
3779;SDS011;1905;52.482;9.802;2022-09-12T09:01:07;19.10;;;11.87;;
3779;SDS011;1905;52.482;9.802;2022-09-12T09:06:43;20.30;;;12.00;;
3779;SDS011;1905;52.482;9.802;2022-09-12T09:09:23;17.23;;;10.43;;
3779;SDS011;1905;52.482;9.802;2022-09-12T09:12:03;15.77;;;9.87;;
3779;SDS011;1905;52.482;9.802;2022-09-12T09:17:46;11.18;;;7.80;;
3779;SDS011;1905;52.482;9.802;2022-09-12T09:20:20;8.83;;;7.23;;
3779;SDS011;1905;52.482;9.802;2022-09-12T09:22:54;10.97;;;7.03;;
3779;SDS011;1905;52.482;9.802;2022-09-12T09:25:29;9.70;;;6.33;;
3779;SDS011;1905;52.482;9.802;2022-09-12T09:28:10;10.57;;;6.20;;
3779;SDS011;1905;52.482;9.802;2022-09-12T09:30:43;9.77;;;6.50;;
3779;SDS011;1905;52.482;9.802;2022-09-12T09:33:14;7.40;;;5.57;;
3779;SDS011;1905;52.482;9.802;2022-09-12T09:35:47;8.00;;;5.90;;
3779;SDS011;1905;52.482;9.802;2022-09-12T09:38:22;9.33;;;5.47;;
3779;SDS011;1905;52.482;9.802;2022-09-12T09:40:57;5.60;;;5.03;;
3779;SDS011;1905;52.482;9.802;2022-09-12T09:43:34;5.33;;;4.80;;
3779;SDS011;1905;52.482;9.802;2022-09-12T09:46:05;6.30;;;4.57;;
3779;SDS011;1905;52.482;9.802;2022-09-12T09:48:33;6.30;;;4.67;;
3779;SDS011;1905;52.482;9.802;2022-09-12T09:51:03;7.13;;;5.07;;
3779;SDS011;1905;52.482;9.802;2022-09-12T09:53:36;7.10;;;5.27;;
3779;SDS011;1905;52.482;9.802;2022-09-12T09:56:09;5.70;;;4.57;;
3779;SDS011;1905;52.482;9.802;2022-09-12T09:58:42;6.07;;;4.63;;
3779;SDS011;1905;52.482;9.802;2022-09-12T10:01:13;6.97;;;5.20;;
3779;SDS011;1905;52.482;9.802;2022-09-12T10:03:49;6.13;;;4.47;;
3779;SDS011;1905;52.482;9.802;2022-09-12T10:06:21;7.00;;;4.73;;
3779;SDS011;1905;52.482;9.802;2022-09-12T10:09:03;7.30;;;4.50;;
3779;SDS011;1905;52.482;9.802;2022-09-12T10:11:32;5.97;;;5.37;;
3779;SDS011;1905;52.482;9.802;2022-09-12T10:14:00;5.10;;;4.27;;
3779;SDS011;1905;52.482;9.802;2022-09-12T10:16:31;5.43;;;4.30;;
3779;SDS011;1905;52.482;9.802;2022-09-12T10:19:00;5.50;;;4.23;;
3779;SDS011;1905;52.482;9.802;2022-09-12T10:21:30;5.07;;;4.50;;
3779;SDS011;1905;52.482;9.802;2022-09-12T10:24:05;8.53;;;4.17;;
3779;SDS011;1905;52.482;9.802;2022-09-12T10:26:45;8.00;;;4.90;;
3779;SDS011;1905;52.482;9.802;2022-09-12T10:29:22;6.17;;;4.70;;
3779;SDS011;1905;52.482;9.802;2022-09-12T10:31:54;5.10;;;4.03;;
3779;SDS011;1905;52.482;9.802;2022-09-12T10:34:26;3.33;;;3.13;;
3779;SDS011;1905;52.482;9.802;2022-09-12T10:36:58;5.30;;;4.23;;
3779;SDS011;1905;52.482;9.802;2022-09-12T10:39:28;3.90;;;3.60;;
3779;SDS011;1905;52.482;9.802;2022-09-12T10:41:57;4.37;;;3.50;;
3779;SDS011;1905;52.482;9.802;2022-09-12T10:44:25;5.87;;;3.80;;
3779;SDS011;1905;52.482;9.802;2022-09-12T10:46:56;6.20;;;3.67;;
3779;SDS011;1905;52.482;9.802;2022-09-12T10:49:26;4.10;;;3.67;;
3779;SDS011;1905;52.482;9.802;2022-09-12T10:51:57;6.17;;;4.07;;
3779;SDS011;1905;52.482;9.802;2022-09-12T10:54:43;5.80;;;3.67;;
3779;SDS011;1905;52.482;9.802;2022-09-12T10:57:24;4.27;;;3.50;;
3779;SDS011;1905;52.482;9.802;2022-09-12T11:00:15;4.70;;;4.23;;
3779;SDS011;1905;52.482;9.802;2022-09-12T11:02:58;6.70;;;3.80;;
3779;SDS011;1905;52.482;9.802;2022-09-12T11:05:36;4.30;;;3.90;;
3779;SDS011;1905;52.482;9.802;2022-09-12T11:08:18;4.40;;;4.00;;
3779;SDS011;1905;52.482;9.802;2022-09-12T11:11:10;5.17;;;4.40;;
3779;SDS011;1905;52.482;9.802;2022-09-12T11:13:49;3.70;;;2.87;;
3779;SDS011;1905;52.482;9.802;2022-09-12T11:16:25;5.33;;;3.60;;
3779;SDS011;1905;52.482;9.802;2022-09-12T11:19:05;8.33;;;4.60;;
3779;SDS011;1905;52.482;9.802;2022-09-12T11:21:46;5.10;;;3.50;;
3779;SDS011;1905;52.482;9.802;2022-09-12T11:24:32;3.30;;;3.00;;
3779;SDS011;1905;52.482;9.802;2022-09-12T11:27:16;3.87;;;3.57;;
3779;SDS011;1905;52.482;9.802;2022-09-12T11:29:53;4.13;;;3.37;;
3779;SDS011;1905;52.482;9.802;2022-09-12T11:32:31;4.03;;;3.23;;
3779;SDS011;1905;52.482;9.802;2022-09-12T11:35:10;3.87;;;3.40;;
3779;SDS011;1905;52.482;9.802;2022-09-12T11:37:47;3.87;;;3.00;;
3779;SDS011;1905;52.482;9.802;2022-09-12T11:40:27;3.70;;;3.13;;
3779;SDS011;1905;52.482;9.802;2022-09-12T11:42:59;3.90;;;2.83;;
3779;SDS011;1905;52.482;9.802;2022-09-12T11:45:33;4.50;;;2.70;;
3779;SDS011;1905;52.482;9.802;2022-09-12T11:48:06;3.23;;;2.90;;
3779;SDS011;1905;52.482;9.802;2022-09-12T11:50:41;3.10;;;2.70;;
3779;SDS011;1905;52.482;9.802;2022-09-12T11:53:10;3.27;;;2.97;;
3779;SDS011;1905;52.482;9.802;2022-09-12T11:55:47;2.27;;;2.07;;
3779;SDS011;1905;52.482;9.802;2022-09-12T11:58:21;3.00;;;2.53;;
3779;SDS011;1905;52.482;9.802;2022-09-12T12:00:52;2.50;;;2.30;;
3779;SDS011;1905;52.482;9.802;2022-09-12T12:03:23;2.63;;;2.43;;
3779;SDS011;1905;52.482;9.802;2022-09-12T12:06:00;3.10;;;2.80;;
3779;SDS011;1905;52.482;9.802;2022-09-12T12:08:31;4.10;;;3.63;;
3779;SDS011;1905;52.482;9.802;2022-09-12T12:11:04;3.83;;;2.97;;
3779;SDS011;1905;52.482;9.802;2022-09-12T12:13:34;2.43;;;2.27;;
3779;SDS011;1905;52.482;9.802;2022-09-12T12:16:06;3.33;;;2.90;;
3779;SDS011;1905;52.482;9.802;2022-09-12T12:18:39;4.10;;;2.83;;
3779;SDS011;1905;52.482;9.802;2022-09-12T12:21:20;5.27;;;3.73;;
3779;SDS011;1905;52.482;9.802;2022-09-12T12:24:10;3.13;;;2.92;;
3779;SDS011;1905;52.482;9.802;2022-09-12T12:26:42;1.90;;;1.80;;
3779;SDS011;1905;52.482;9.802;2022-09-12T12:29:35;2.70;;;2.50;;
3779;SDS011;1905;52.482;9.802;2022-09-12T12:32:19;2.57;;;2.37;;
3779;SDS011;1905;52.482;9.802;2022-09-12T12:35:00;4.40;;;2.47;;
3779;SDS011;1905;52.482;9.802;2022-09-12T12:37:57;2.03;;;1.93;;
3779;SDS011;1905;52.482;9.802;2022-09-12T12:40:26;2.40;;;2.20;;
3779;SDS011;1905;52.482;9.802;2022-09-12T12:42:59;3.03;;;2.20;;
3779;SDS011;1905;52.482;9.802;2022-09-12T12:54:32;3.97;;;2.93;;
3779;SDS011;1905;52.482;9.802;2022-09-12T12:57:26;2.67;;;2.03;;
3779;SDS011;1905;52.482;9.802;2022-09-12T12:59:57;2.33;;;1.60;;
3779;SDS011;1905;52.482;9.802;2022-09-12T13:02:29;3.00;;;2.70;;
3779;SDS011;1905;52.482;9.802;2022-09-12T13:05:00;2.47;;;2.27;;
3779;SDS011;1905;52.482;9.802;2022-09-12T13:07:32;1.90;;;1.80;;
3779;SDS011;1905;52.482;9.802;2022-09-12T13:10:04;2.10;;;1.90;;
3779;SDS011;1905;52.482;9.802;2022-09-12T13:12:34;2.10;;;1.90;;
3779;SDS011;1905;52.482;9.802;2022-09-12T13:15:27;2.50;;;2.30;;
3779;SDS011;1905;52.482;9.802;2022-09-12T13:18:11;1.93;;;1.83;;
3779;SDS011;1905;52.482;9.802;2022-09-12T13:20:46;2.47;;;2.13;;
3779;SDS011;1905;52.482;9.802;2022-09-12T13:23:20;2.43;;;1.97;;
3779;SDS011;1905;52.482;9.802;2022-09-12T13:25:54;1.97;;;1.83;;
3779;SDS011;1905;52.482;9.802;2022-09-12T13:28:24;6.17;;;5.17;;
3779;SDS011;1905;52.482;9.802;2022-09-12T13:30:59;2.50;;;2.23;;
3779;SDS011;1905;52.482;9.802;2022-09-12T13:33:33;2.90;;;2.30;;
3779;SDS011;1905;52.482;9.802;2022-09-12T13:36:06;2.10;;;2.00;;
3779;SDS011;1905;52.482;9.802;2022-09-12T13:38:50;2.63;;;2.00;;
3779;SDS011;1905;52.482;9.802;2022-09-12T13:41:35;2.50;;;2.30;;
3779;SDS011;1905;52.482;9.802;2022-09-12T13:44:11;2.70;;;2.50;;
3779;SDS011;1905;52.482;9.802;2022-09-12T13:46:43;4.10;;;2.10;;
3779;SDS011;1905;52.482;9.802;2022-09-12T13:49:14;2.83;;;2.50;;
3779;SDS011;1905;52.482;9.802;2022-09-12T13:51:51;3.57;;;2.10;;
3779;SDS011;1905;52.482;9.802;2022-09-12T13:54:24;2.50;;;2.27;;
3779;SDS011;1905;52.482;9.802;2022-09-12T13:56:53;2.10;;;1.90;;
3779;SDS011;1905;52.482;9.802;2022-09-12T13:59:21;2.20;;;2.00;;
3779;SDS011;1905;52.482;9.802;2022-09-12T14:01:49;3.43;;;2.43;;
3779;SDS011;1905;52.482;9.802;2022-09-12T14:04:18;3.60;;;3.03;;
3779;SDS011;1905;52.482;9.802;2022-09-12T14:07:08;2.88;;;2.10;;
3779;SDS011;1905;52.482;9.802;2022-09-12T14:09:39;3.80;;;2.20;;
3779;SDS011;1905;52.482;9.802;2022-09-12T14:12:13;3.00;;;2.70;;
3779;SDS011;1905;52.482;9.802;2022-09-12T14:14:47;2.77;;;2.37;;
3779;SDS011;1905;52.482;9.802;2022-09-12T14:17:17;2.47;;;2.37;;
3779;SDS011;1905;52.482;9.802;2022-09-12T14:19:49;2.60;;;2.23;;
3779;SDS011;1905;52.482;9.802;2022-09-12T14:22:18;3.00;;;2.43;;
3779;SDS011;1905;52.482;9.802;2022-09-12T14:24:46;3.10;;;2.40;;
3779;SDS011;1905;52.482;9.802;2022-09-12T14:27:16;3.87;;;2.50;;
3779;SDS011;1905;52.482;9.802;2022-09-12T14:29:45;3.23;;;2.47;;
3779;SDS011;1905;52.482;9.802;2022-09-12T14:32:19;2.70;;;2.50;;
3779;SDS011;1905;52.482;9.802;2022-09-12T14:37:45;1.70;;;1.60;;
3779;SDS011;1905;52.482;9.802;2022-09-12T14:40:16;2.90;;;2.70;;
3779;SDS011;1905;52.482;9.802;2022-09-12T14:42:48;2.77;;;2.50;;
3779;SDS011;1905;52.482;9.802;2022-09-12T14:45:21;2.47;;;2.27;;
3779;SDS011;1905;52.482;9.802;2022-09-12T14:47:51;2.80;;;2.23;;
3779;SDS011;1905;52.482;9.802;2022-09-12T14:50:21;3.30;;;2.73;;
3779;SDS011;1905;52.482;9.802;2022-09-12T14:53:04;2.78;;;2.35;;
3779;SDS011;1905;52.482;9.802;2022-09-12T14:55:39;3.37;;;2.40;;
3779;SDS011;1905;52.482;9.802;2022-09-12T14:58:15;2.30;;;2.17;;
3779;SDS011;1905;52.482;9.802;2022-09-12T15:00:55;2.13;;;1.90;;
3779;SDS011;1905;52.482;9.802;2022-09-12T15:03:26;4.73;;;2.10;;
3779;SDS011;1905;52.482;9.802;2022-09-12T15:05:56;2.07;;;1.87;;
3779;SDS011;1905;52.482;9.802;2022-09-12T15:08:25;3.20;;;2.00;;
3779;SDS011;1905;52.482;9.802;2022-09-12T15:10:53;2.60;;;2.20;;
3779;SDS011;1905;52.482;9.802;2022-09-12T15:13:23;1.63;;;1.53;;
3779;SDS011;1905;52.482;9.802;2022-09-12T15:15:53;1.57;;;1.47;;
3779;SDS011;1905;52.482;9.802;2022-09-12T15:18:22;2.20;;;2.00;;
3779;SDS011;1905;52.482;9.802;2022-09-12T15:20:52;1.73;;;1.50;;
3779;SDS011;1905;52.482;9.802;2022-09-12T15:23:29;2.27;;;2.07;;
3779;SDS011;1905;52.482;9.802;2022-09-12T15:26:00;2.05;;;1.88;;
3779;SDS011;1905;52.482;9.802;2022-09-12T15:28:30;2.10;;;1.90;;
3779;SDS011;1905;52.482;9.802;2022-09-12T15:30:59;1.90;;;1.80;;
3779;SDS011;1905;52.482;9.802;2022-09-12T15:33:30;4.37;;;2.10;;
3779;SDS011;1905;52.482;9.802;2022-09-12T15:35:58;1.90;;;1.60;;
3779;SDS011;1905;52.482;9.802;2022-09-12T15:38:25;1.70;;;1.60;;
3779;SDS011;1905;52.482;9.802;2022-09-12T15:40:53;2.23;;;1.97;;
3779;SDS011;1905;52.482;9.802;2022-09-12T15:43:21;2.03;;;1.83;;
3779;SDS011;1905;52.482;9.802;2022-09-12T15:45:52;2.20;;;2.00;;
3779;SDS011;1905;52.482;9.802;2022-09-12T15:48:20;1.80;;;1.70;;
3779;SDS011;1905;52.482;9.802;2022-09-12T15:50:47;1.90;;;1.80;;
3779;SDS011;1905;52.482;9.802;2022-09-12T15:53:15;1.80;;;1.70;;
3779;SDS011;1905;52.482;9.802;2022-09-12T15:55:43;3.03;;;2.17;;
3779;SDS011;1905;52.482;9.802;2022-09-12T15:58:11;1.90;;;1.67;;